Time;durP1;ratioP1;P1;durP2;ratioP2;P2;SDS_P1;SDS_P2;PMS_P1;PMS_P2;Temp;Humidity;BMP_temperature;BMP_pressure;BME280_temperature;BME280_humidity;BME280_pressure;Samples;Min_cycle;Max_cycle;Signal;HPM_P1;HPM_P2
2023/04/25 00:00:12;;;;;;;8.87;7.13;;;;;18.80;99848.00;;;;2069761;28;20711;-67
2023/04/25 00:01:12;;;;;;;9.90;7.30;;;;;18.90;99849.00;;;;2070301;28;20213;-67
2023/04/25 00:02:13;;;;;;;9.50;7.50;;;;;18.80;99844.00;;;;2061020;28;20314;-67
2023/04/25 00:03:13;;;;;;;11.77;7.53;;;;;18.80;99846.00;;;;2063720;28;20218;-67
2023/04/25 00:04:14;;;;;;;10.20;7.30;;;;;18.80;99847.00;;;;2063257;28;20254;-67
2023/04/25 00:05:17;;;;;;;8.80;7.10;;;;;18.90;99841.00;;;;2062840;28;20258;-67
2023/04/25 00:06:17;;;;;;;9.95;8.35;;;;;18.90;99843.00;;;;2066246;28;21019;-67
2023/04/25 00:07:18;;;;;;;9.97;6.53;;;;;18.80;99840.00;;;;2064925;28;20226;-67
2023/04/25 00:08:18;;;;;;;9.30;7.07;;;;;18.80;99840.00;;;;2057320;28;20784;-67
2023/04/25 00:09:18;;;;;;;8.40;6.33;;;;;18.80;99843.00;;;;2064007;28;20236;-67
2023/04/25 00:10:20;;;;;;;8.90;6.50;;;;;18.80;99842.00;;;;2063838;28;20230;-67
2023/04/25 00:11:20;;;;;;;9.98;7.43;;;;;18.80;99842.00;;;;2066327;28;20275;-67
2023/04/25 00:12:22;;;;;;;10.50;6.47;;;;;18.80;99842.00;;;;2064079;28;20273;-67
2023/04/25 00:13:23;;;;;;;9.45;7.05;;;;;18.80;99848.00;;;;2064621;28;20217;-67
2023/04/25 00:14:23;;;;;;;11.20;7.00;;;;;18.80;99842.00;;;;2064719;28;20306;-67
2023/04/25 00:15:24;;;;;;;9.90;6.77;;;;;18.80;99841.00;;;;2066842;28;20215;-67
2023/04/25 00:16:24;;;;;;;10.60;7.10;;;;;18.80;99842.00;;;;2070828;28;20229;-67
2023/04/25 00:17:24;;;;;;;9.17;6.53;;;;;18.80;99842.00;;;;2066335;28;20748;-67
2023/04/25 00:18:25;;;;;;;8.57;7.00;;;;;18.80;99838.00;;;;2070141;28;20251;-67
2023/04/25 00:19:28;;;;;;;9.00;6.50;;;;;18.80;99838.00;;;;2070037;28;20221;-67
2023/04/25 00:20:29;;;;;;;9.25;6.95;;;;;18.80;99846.00;;;;2064688;28;20236;-67
2023/04/25 00:21:31;;;;;;;9.20;6.95;;;;;18.80;99841.00;;;;2064226;28;20256;-67
2023/04/25 00:22:33;;;;;;;7.25;5.90;;;;;18.80;99844.00;;;;2055946;28;20210;-67
2023/04/25 00:23:35;;;;;;;9.02;6.55;;;;;18.80;99842.00;;;;2052000;28;20206;-67
2023/04/25 00:24:35;;;;;;;8.43;6.18;;;;;18.80;99847.00;;;;2056318;28;20215;-67
2023/04/25 00:25:36;;;;;;;7.40;5.93;;;;;18.80;99843.00;;;;2060416;28;20214;-67
2023/04/25 00:26:39;;;;;;;9.20;6.17;;;;;18.80;99844.00;;;;2068260;28;20239;-67
2023/04/25 00:27:39;;;;;;;8.40;6.43;;;;;18.80;99844.00;;;;2063525;28;20296;-67
2023/04/25 00:28:40;;;;;;;9.10;5.57;;;;;18.80;99840.00;;;;2058891;28;20777;-67
2023/04/25 00:29:40;;;;;;;10.27;6.00;;;;;18.80;99846.00;;;;2061142;28;20321;-67
2023/04/25 00:30:40;;;;;;;8.97;5.83;;;;;18.80;99840.00;;;;2064706;28;20229;-67
2023/04/25 00:31:41;;;;;;;7.70;5.63;;;;;18.80;99838.00;;;;2060171;28;20676;-67
2023/04/25 00:32:41;;;;;;;7.90;5.97;;;;;18.80;99853.00;;;;2059274;28;20207;-67
2023/04/25 00:33:41;;;;;;;7.97;5.83;;;;;18.80;99839.00;;;;2063807;28;20225;-67
2023/04/25 00:34:42;;;;;;;8.70;5.40;;;;;18.80;99841.00;;;;2064553;28;20963;-67
2023/04/25 00:35:42;;;;;;;8.70;6.43;;;;;18.80;99846.00;;;;2063864;28;20690;-67
2023/04/25 00:36:42;;;;;;;9.10;6.23;;;;;18.80;99839.00;;;;2064563;28;20203;-66
2023/04/25 00:37:43;;;;;;;7.30;5.60;;;;;18.80;99840.00;;;;2064155;28;20378;-66
2023/04/25 00:38:43;;;;;;;10.40;6.83;;;;;18.80;99848.00;;;;2055871;28;20710;-66
2023/04/25 00:39:43;;;;;;;9.67;5.77;;;;;18.80;99852.00;;;;2055666;28;20215;-66
2023/04/25 00:40:44;;;;;;;8.57;5.90;;;;;18.80;99846.00;;;;2061178;28;20300;-66
2023/04/25 00:41:44;;;;;;;7.87;5.93;;;;;18.90;99849.00;;;;2064530;28;20242;-66
2023/04/25 00:42:45;;;;;;;7.03;5.60;;;;;18.90;99842.00;;;;2060270;28;20214;-66
2023/04/25 00:43:45;;;;;;;11.70;7.00;;;;;18.90;99845.00;;;;2057825;28;20748;-66
2023/04/25 00:44:46;;;;;;;9.67;6.20;;;;;18.80;99839.00;;;;2053082;28;20215;-67
2023/04/25 00:45:46;;;;;;;10.83;5.53;;;;;18.90;99850.00;;;;2055580;28;20218;-67
2023/04/25 00:46:48;;;;;;;10.90;6.60;;;;;18.90;99846.00;;;;2061986;28;20214;-67
2023/04/25 00:47:48;;;;;;;7.80;5.10;;;;;18.80;99853.00;;;;2064274;28;20219;-67
2023/04/25 00:48:48;;;;;;;6.73;5.87;;;;;18.80;99840.00;;;;2064276;28;20199;-67
2023/04/25 00:49:48;;;;;;;9.30;5.37;;;;;18.90;99848.00;;;;2067891;28;20222;-67
2023/04/25 00:50:57;;;;;;;7.90;5.93;;;;;18.80;99845.00;;;;2064426;28;20207;-67
2023/04/25 00:51:57;;;;;;;9.18;5.63;;;;;18.80;99844.00;;;;2070302;28;20221;-67
2023/04/25 00:52:58;;;;;;;7.30;5.30;;;;;18.80;99833.00;;;;2063952;28;20756;-67
2023/04/25 00:53:58;;;;;;;11.33;5.57;;;;;18.80;99832.00;;;;2047765;28;20648;-67
2023/04/25 00:54:58;;;;;;;8.27;4.90;;;;;18.80;99834.00;;;;2049273;28;20762;-67
2023/04/25 00:55:59;;;;;;;7.33;4.50;;;;;18.80;99845.00;;;;2071463;28;20673;-67
2023/04/25 00:57:00;;;;;;;8.40;5.27;;;;;18.80;99841.00;;;;2069807;28;20248;-67
2023/04/25 00:58:01;;;;;;;9.52;5.20;;;;;18.80;99843.00;;;;2070689;28;20291;-67
2023/04/25 00:59:01;;;;;;;8.00;5.33;;;;;18.80;99837.00;;;;2065055;28;20573;-67
2023/04/25 01:00:02;;;;;;;14.43;5.43;;;;;18.80;99844.00;;;;2055473;28;20222;-67
2023/04/25 01:01:02;;;;;;;9.45;4.85;;;;;18.80;99846.00;;;;2063222;28;20221;-67
2023/04/25 01:02:04;;;;;;;8.57;4.80;;;;;18.80;99846.00;;;;2055268;28;20459;-67
2023/04/25 01:03:04;;;;;;;7.25;4.75;;;;;18.80;99846.00;;;;2063414;28;20298;-67
2023/04/25 01:04:05;;;;;;;5.30;4.50;;;;;18.80;99850.00;;;;2062927;28;20210;-67
2023/04/25 01:05:05;;;;;;;8.53;5.27;;;;;18.80;99849.00;;;;2069725;28;20252;-67
2023/04/25 01:06:07;;;;;;;7.03;5.10;;;;;18.80;99845.00;;;;2055161;28;20215;-67
2023/04/25 01:07:08;;;;;;;6.50;4.60;;;;;18.80;99846.00;;;;2055360;28;20210;-67
2023/04/25 01:08:09;;;;;;;7.33;4.47;;;;;18.80;99850.00;;;;2070701;28;20642;-67
2023/04/25 01:09:09;;;;;;;7.60;4.60;;;;;18.80;99847.00;;;;2063435;28;20470;-67
2023/04/25 01:10:10;;;;;;;8.80;4.70;;;;;18.70;99844.00;;;;2059908;28;20250;-67
2023/04/25 01:11:10;;;;;;;6.80;4.93;;;;;18.70;99849.00;;;;2060786;28;20217;-67
2023/04/25 01:12:10;;;;;;;6.37;4.67;;;;;18.70;99844.00;;;;2064608;28;20217;-67
2023/04/25 01:13:11;;;;;;;6.37;4.00;;;;;18.80;99834.00;;;;2061482;28;20214;-67
2023/04/25 01:14:11;;;;;;;7.83;4.50;;;;;18.70;99849.00;;;;2055911;28;20249;-67
2023/04/25 01:15:11;;;;;;;7.27;4.33;;;;;18.70;99849.00;;;;2066876;28;20596;-67
2023/04/25 01:16:12;;;;;;;7.80;4.57;;;;;18.70;99855.00;;;;2054908;28;20562;-67
2023/04/25 01:17:12;;;;;;;7.43;4.87;;;;;18.70;99854.00;;;;2054482;28;20717;-67
2023/04/25 01:18:12;;;;;;;7.77;4.87;;;;;18.70;99856.00;;;;2063227;28;20217;-67
2023/04/25 01:19:13;;;;;;;5.17;3.83;;;;;18.80;99844.00;;;;2064260;28;20202;-67
2023/04/25 01:20:13;;;;;;;5.90;4.13;;;;;18.70;99829.00;;;;2057623;28;20306;-67
2023/04/25 01:21:13;;;;;;;6.90;4.37;;;;;18.70;99847.00;;;;2058767;28;20212;-67
2023/04/25 01:22:14;;;;;;;8.20;5.27;;;;;18.70;99844.00;;;;2070880;28;20576;-67
2023/04/25 01:23:14;;;;;;;6.40;4.40;;;;;18.70;99845.00;;;;2064670;28;20743;-67
2023/04/25 01:24:15;;;;;;;9.37;4.60;;;;;18.70;99841.00;;;;2062618;28;20285;-67
2023/04/25 01:25:15;;;;;;;5.20;4.07;;;;;18.70;99850.00;;;;2055095;28;20212;-67
2023/04/25 01:26:15;;;;;;;5.43;4.20;;;;;18.70;99843.00;;;;2064122;28;20255;-67
2023/04/25 01:27:16;;;;;;;5.90;3.73;;;;;18.70;99830.00;;;;2064059;28;20217;-67
2023/04/25 01:28:16;;;;;;;6.23;4.60;;;;;18.70;99843.00;;;;2049900;28;20327;-67
2023/04/25 01:29:19;;;;;;;9.07;4.37;;;;;18.70;99844.00;;;;2071170;28;20216;-67
2023/04/25 01:30:19;;;;;;;5.78;4.60;;;;;18.70;99848.00;;;;2066713;28;20218;-67
2023/04/25 01:31:20;;;;;;;5.20;3.90;;;;;18.70;99850.00;;;;2051954;28;20216;-67
2023/04/25 01:32:20;;;;;;;5.30;3.70;;;;;18.70;99854.00;;;;2061320;28;20225;-67
2023/04/25 01:33:21;;;;;;;6.77;4.17;;;;;18.70;99857.00;;;;2065290;28;20233;-66
2023/04/25 01:34:21;;;;;;;5.93;4.07;;;;;18.70;99854.00;;;;2067971;28;20732;-66
2023/04/25 01:35:23;;;;;;;6.30;3.70;;;;;18.70;99854.00;;;;2063790;28;20210;-66
2023/04/25 01:36:23;;;;;;;6.20;4.28;;;;;18.70;99864.00;;;;2064222;28;20209;-66
2023/04/25 01:37:24;;;;;;;6.07;4.37;;;;;18.70;99854.00;;;;2056858;28;20246;-66
2023/04/25 01:38:24;;;;;;;6.33;4.83;;;;;18.70;99862.00;;;;2057601;28;20270;-66
2023/04/25 01:39:25;;;;;;;6.90;4.50;;;;;18.70;99858.00;;;;2064362;28;20214;-66
2023/04/25 01:40:25;;;;;;;4.87;3.67;;;;;18.70;99862.00;;;;2060181;28;20602;-67
2023/04/25 01:41:25;;;;;;;4.90;4.30;;;;;18.70;99841.00;;;;2065377;28;20233;-67
2023/04/25 01:42:26;;;;;;;6.67;4.37;;;;;18.70;99862.00;;;;2065669;28;20219;-67
2023/04/25 01:43:26;;;;;;;6.53;4.00;;;;;18.70;99867.00;;;;2068834;28;20310;-67
2023/04/25 01:44:26;;;;;;;5.90;3.93;;;;;18.70;99863.00;;;;2063589;28;20210;-67
2023/04/25 01:45:27;;;;;;;5.80;3.53;;;;;18.70;99868.00;;;;2065237;28;20225;-67
2023/04/25 01:46:27;;;;;;;5.70;4.17;;;;;18.70;99867.00;;;;2063586;28;20300;-67
2023/04/25 01:47:27;;;;;;;7.00;4.20;;;;;18.70;99875.00;;;;2065714;28;20266;-67
2023/04/25 01:48:28;;;;;;;5.80;4.10;;;;;18.70;99877.00;;;;2063863;28;20300;-67
2023/04/25 01:49:28;;;;;;;6.37;4.00;;;;;18.70;99874.00;;;;2063356;28;20685;-67
2023/04/25 01:50:29;;;;;;;6.70;3.60;;;;;18.70;99873.00;;;;2063711;28;20566;-67
2023/04/25 01:51:30;;;;;;;6.10;3.93;;;;;18.70;99872.00;;;;2063497;28;20233;-67
2023/04/25 01:52:30;;;;;;;6.85;4.40;;;;;18.70;99869.00;;;;2054983;28;20310;-67
2023/04/25 01:53:30;;;;;;;6.60;3.80;;;;;18.70;99872.00;;;;2054577;28;20234;-67
2023/04/25 01:54:31;;;;;;;5.70;4.33;;;;;18.70;99866.00;;;;2063894;28;20214;-67
2023/04/25 01:55:31;;;;;;;5.00;3.40;;;;;18.70;99873.00;;;;2058188;28;20267;-67
2023/04/25 01:56:32;;;;;;;6.37;3.47;;;;;18.70;99863.00;;;;2055519;28;20222;-67
2023/04/25 01:57:32;;;;;;;6.40;4.40;;;;;18.70;99882.00;;;;2063096;28;20211;-67
2023/04/25 01:58:32;;;;;;;5.23;3.90;;;;;18.70;99872.00;;;;2062641;28;20301;-67
2023/04/25 01:59:33;;;;;;;5.57;4.03;;;;;18.70;99880.00;;;;2063984;28;20297;-67
2023/04/25 02:00:33;;;;;;;4.30;3.70;;;;;18.70;99872.00;;;;2065150;28;20218;-67
2023/04/25 02:01:33;;;;;;;5.20;3.70;;;;;18.70;99876.00;;;;2063472;28;20255;-67
2023/04/25 02:02:34;;;;;;;5.70;3.80;;;;;18.70;99877.00;;;;2063043;28;20246;-67
2023/04/25 02:03:36;;;;;;;7.97;4.00;;;;;18.60;99880.00;;;;2063397;28;20265;-67
2023/04/25 02:04:36;;;;;;;5.80;3.90;;;;;18.60;99875.00;;;;2063345;28;20923;-67
2023/04/25 02:05:37;;;;;;;6.77;4.00;;;;;18.60;99882.00;;;;2063953;28;20213;-67
2023/04/25 02:06:37;;;;;;;5.87;3.57;;;;;18.60;99882.00;;;;2063577;28;20213;-67
2023/04/25 02:07:37;;;;;;;5.07;3.50;;;;;18.60;99887.00;;;;2063499;28;20215;-67
2023/04/25 02:08:38;;;;;;;4.77;3.90;;;;;18.70;99888.00;;;;2063738;28;20206;-67
2023/04/25 02:09:38;;;;;;;4.37;3.90;;;;;18.60;99881.00;;;;2063209;28;20237;-67
2023/04/25 02:10:38;;;;;;;6.40;3.60;;;;;18.60;99885.00;;;;2063723;28;20210;-67
2023/04/25 02:11:39;;;;;;;7.33;4.30;;;;;18.60;99885.00;;;;2063245;28;20217;-67
2023/04/25 02:12:39;;;;;;;7.70;4.10;;;;;18.60;99876.00;;;;2068115;28;20213;-67
2023/04/25 02:13:40;;;;;;;5.30;3.37;;;;;18.60;99884.00;;;;2067694;28;20241;-67
2023/04/25 02:14:40;;;;;;;4.53;3.10;;;;;18.60;99889.00;;;;2066793;28;20572;-67
2023/04/25 02:15:41;;;;;;;6.57;3.87;;;;;18.70;99891.00;;;;2068369;28;20569;-67
2023/04/25 02:16:43;;;;;;;6.10;3.57;;;;;18.60;99893.00;;;;2064693;28;20720;-67
2023/04/25 02:17:44;;;;;;;4.57;3.47;;;;;18.60;99893.00;;;;2067252;28;20248;-67
2023/04/25 02:18:45;;;;;;;4.65;3.72;;;;;18.60;99888.00;;;;2064064;28;20224;-67
2023/04/25 02:19:45;;;;;;;5.00;3.70;;;;;18.60;99893.00;;;;2065709;28;20232;-67
2023/04/25 02:20:46;;;;;;;7.10;3.50;;;;;18.60;99889.00;;;;2063203;28;20206;-67
2023/04/25 02:21:46;;;;;;;5.03;3.40;;;;;18.60;99901.00;;;;2068907;28;20212;-67
2023/04/25 02:22:46;;;;;;;4.23;3.47;;;;;18.60;99896.00;;;;2070456;28;20209;-67
2023/04/25 02:23:48;;;;;;;7.50;4.20;;;;;18.60;99890.00;;;;2063244;28;20242;-67
2023/04/25 02:24:49;;;;;;;5.85;3.22;;;;;18.60;99901.00;;;;2055711;28;20211;-67
2023/04/25 02:25:49;;;;;;;7.07;3.97;;;;;18.60;99896.00;;;;2057334;28;20241;-67
2023/04/25 02:26:50;;;;;;;6.47;3.53;;;;;18.60;99891.00;;;;2055012;28;20215;-67
2023/04/25 02:27:51;;;;;;;4.57;3.53;;;;;18.60;99892.00;;;;2053970;28;20240;-67
2023/04/25 02:28:51;;;;;;;5.10;3.33;;;;;18.60;99888.00;;;;2069372;28;20210;-67
2023/04/25 02:29:51;;;;;;;5.23;3.60;;;;;18.60;99893.00;;;;2071446;28;20978;-67
2023/04/25 02:30:52;;;;;;;5.40;3.53;;;;;18.60;99890.00;;;;2064905;28;20241;-67
2023/04/25 02:31:52;;;;;;;5.40;3.77;;;;;18.60;99888.00;;;;2069730;28;20208;-67
2023/04/25 02:32:53;;;;;;;7.00;4.00;;;;;18.60;99892.00;;;;2067339;28;20205;-67
2023/04/25 02:33:53;;;;;;;4.97;3.30;;;;;18.60;99895.00;;;;2063707;28;20214;-67
2023/04/25 02:34:53;;;;;;;7.80;3.13;;;;;18.60;99894.00;;;;2069285;28;20561;-67
2023/04/25 02:35:54;;;;;;;4.07;3.30;;;;;18.60;99903.00;;;;2067039;28;20681;-67
2023/04/25 02:36:54;;;;;;;5.37;4.00;;;;;18.60;99898.00;;;;2069980;28;20744;-67
2023/04/25 02:37:55;;;;;;;6.00;4.00;;;;;18.60;99900.00;;;;2065322;28;20253;-67
2023/04/25 02:38:55;;;;;;;4.50;3.33;;;;;18.60;99898.00;;;;2063584;28;20219;-67
2023/04/25 02:39:55;;;;;;;5.50;3.13;;;;;18.60;99901.00;;;;2062732;28;20241;-67
2023/04/25 02:40:56;;;;;;;5.60;3.60;;;;;18.60;99917.00;;;;2063476;28;20280;-67
2023/04/25 02:41:56;;;;;;;4.43;3.63;;;;;18.60;99903.00;;;;2063669;28;20227;-67
2023/04/25 02:42:56;;;;;;;4.47;3.00;;;;;18.60;99895.00;;;;2063131;28;20232;-67
2023/04/25 02:43:57;;;;;;;4.67;3.10;;;;;18.60;99905.00;;;;2054744;28;20695;-67
2023/04/25 02:44:57;;;;;;;4.00;3.40;;;;;18.60;99901.00;;;;2056076;28;20240;-67
2023/04/25 02:45:58;;;;;;;5.63;3.57;;;;;18.60;99908.00;;;;2063591;28;20272;-67
2023/04/25 02:46:58;;;;;;;5.30;3.70;;;;;18.60;99903.00;;;;2063109;28;20226;-67
2023/04/25 02:47:58;;;;;;;4.83;3.40;;;;;18.60;99909.00;;;;2063427;28;20270;-67
2023/04/25 02:48:59;;;;;;;5.50;3.57;;;;;18.60;99900.00;;;;2065879;28;20214;-67
2023/04/25 02:49:59;;;;;;;4.10;3.00;;;;;18.60;99903.00;;;;2062932;28;20311;-67
2023/04/25 02:50:59;;;;;;;5.30;3.30;;;;;18.60;99904.00;;;;2063787;28;20218;-67
2023/04/25 02:52:00;;;;;;;4.23;3.00;;;;;18.60;99901.00;;;;2065364;28;20217;-67
2023/04/25 02:53:00;;;;;;;4.63;3.33;;;;;18.60;99899.00;;;;2063488;28;20238;-67
2023/04/25 02:54:00;;;;;;;3.80;2.93;;;;;18.60;99902.00;;;;2062976;28;20210;-67
2023/04/25 02:55:01;;;;;;;6.63;3.20;;;;;18.60;99899.00;;;;2070496;28;20678;-67
2023/04/25 02:56:01;;;;;;;4.60;3.27;;;;;18.60;99905.00;;;;2066965;28;20708;-67
2023/04/25 02:57:02;;;;;;;5.17;3.50;;;;;18.60;99898.00;;;;2063961;28;20219;-67
2023/04/25 02:58:02;;;;;;;5.23;3.47;;;;;18.60;99907.00;;;;2070747;28;20251;-67
2023/04/25 02:59:03;;;;;;;4.37;3.00;;;;;18.60;99912.00;;;;2063690;28;20452;-67
2023/04/25 03:00:04;;;;;;;3.33;3.03;;;;;18.60;99901.00;;;;2063475;28;20213;-67
2023/04/25 03:01:05;;;;;;;3.80;2.97;;;;;18.60;99908.00;;;;2063049;28;20256;-67
2023/04/25 03:02:05;;;;;;;4.43;3.23;;;;;18.50;99912.00;;;;2062843;28;20611;-67
2023/04/25 03:03:05;;;;;;;4.50;3.27;;;;;18.60;99905.00;;;;2071293;28;20232;-67
2023/04/25 03:04:06;;;;;;;3.80;3.10;;;;;18.60;99910.00;;;;2063741;28;20214;-67
2023/04/25 03:05:07;;;;;;;4.10;2.97;;;;;18.50;99906.00;;;;2064536;28;20218;-67
2023/04/25 03:06:07;;;;;;;5.07;3.33;;;;;18.60;99911.00;;;;2063518;28;20304;-67
2023/04/25 03:07:07;;;;;;;4.03;3.00;;;;;18.60;99905.00;;;;2064853;28;20491;-67
2023/04/25 03:08:08;;;;;;;4.87;2.93;;;;;18.50;99909.00;;;;2063158;28;20215;-67
2023/04/25 03:09:08;;;;;;;4.93;3.47;;;;;18.60;99908.00;;;;2063483;28;20249;-67
2023/04/25 03:10:09;;;;;;;4.07;3.07;;;;;18.60;99905.00;;;;2051577;28;20245;-67
2023/04/25 03:11:09;;;;;;;4.50;3.20;;;;;18.60;99910.00;;;;2062625;28;20217;-67
2023/04/25 03:12:10;;;;;;;5.00;3.50;;;;;18.60;99904.00;;;;2062309;28;20253;-67
2023/04/25 03:13:10;;;;;;;3.90;2.93;;;;;18.60;99909.00;;;;2060482;28;20213;-67
2023/04/25 03:14:10;;;;;;;4.60;3.20;;;;;18.50;99890.00;;;;2059579;28;20218;-67
2023/04/25 03:15:11;;;;;;;6.27;3.53;;;;;18.50;99905.00;;;;2055070;28;20206;-67
2023/04/25 03:16:11;;;;;;;5.07;3.23;;;;;18.50;99910.00;;;;2062294;28;20207;-67
2023/04/25 03:17:11;;;;;;;4.83;3.00;;;;;18.50;99898.00;;;;2062182;28;20220;-67
2023/04/25 03:18:12;;;;;;;4.43;3.10;;;;;18.50;99905.00;;;;2063057;28;20214;-67
2023/04/25 03:19:12;;;;;;;4.73;3.17;;;;;18.50;99901.00;;;;2065506;28;20268;-67
2023/04/25 03:20:12;;;;;;;6.30;3.00;;;;;18.50;99910.00;;;;2063247;28;20246;-67
2023/04/25 03:21:13;;;;;;;4.40;2.83;;;;;18.60;99909.00;;;;2062831;28;20291;-67
2023/04/25 03:22:13;;;;;;;3.63;2.87;;;;;18.50;99903.00;;;;2063424;28;20216;-67
2023/04/25 03:23:14;;;;;;;5.83;3.10;;;;;18.50;99905.00;;;;2063196;28;20210;-67
2023/04/25 03:24:15;;;;;;;4.20;2.97;;;;;18.50;99906.00;;;;2062936;28;20560;-67
2023/04/25 03:25:15;;;;;;;5.23;3.77;;;;;18.50;99903.00;;;;2063261;28;20854;-67
2023/04/25 03:26:15;;;;;;;4.07;2.77;;;;;18.50;99905.00;;;;2062768;28;20465;-67
2023/04/25 03:27:16;;;;;;;4.33;3.07;;;;;18.50;99908.00;;;;2063289;28;20234;-67
2023/04/25 03:28:17;;;;;;;4.97;3.00;;;;;18.50;99905.00;;;;2062943;28;20226;-67
2023/04/25 03:29:17;;;;;;;6.50;2.87;;;;;18.50;99907.00;;;;2063922;28;20448;-67
2023/04/25 03:30:17;;;;;;;3.97;2.77;;;;;18.50;99911.00;;;;2063168;28;20245;-67
2023/04/25 03:31:18;;;;;;;5.83;3.10;;;;;18.60;99913.00;;;;2063072;28;20288;-67
2023/04/25 03:32:18;;;;;;;3.20;2.83;;;;;18.60;99904.00;;;;2063322;28;20206;-67
2023/04/25 03:33:18;;;;;;;4.90;3.17;;;;;18.50;99912.00;;;;2054154;28;20248;-67
2023/04/25 03:34:19;;;;;;;3.60;2.90;;;;;18.50;99909.00;;;;2054460;28;20243;-67
2023/04/25 03:35:20;;;;;;;3.50;2.90;;;;;18.50;99915.00;;;;2063555;28;20286;-67
2023/04/25 03:36:20;;;;;;;6.28;3.10;;;;;18.50;99907.00;;;;2064510;28;20213;-67
2023/04/25 03:37:20;;;;;;;3.43;2.97;;;;;18.50;99917.00;;;;2063115;28;20736;-67
2023/04/25 03:38:21;;;;;;;3.83;2.80;;;;;18.50;99913.00;;;;2062997;28;20615;-67
2023/04/25 03:39:21;;;;;;;3.60;3.10;;;;;18.50;99909.00;;;;2063298;28;20632;-67
2023/04/25 03:40:21;;;;;;;4.73;3.60;;;;;18.50;99913.00;;;;2062125;28;20710;-67
2023/04/25 03:41:22;;;;;;;5.10;3.17;;;;;18.50;99920.00;;;;2072258;28;20308;-67
2023/04/25 03:42:25;;;;;;;3.70;3.30;;;;;18.50;99910.00;;;;2064693;28;20209;-67
2023/04/25 03:43:25;;;;;;;4.25;3.10;;;;;18.50;99922.00;;;;2065042;28;20757;-67
2023/04/25 03:44:26;;;;;;;5.77;2.90;;;;;18.50;99916.00;;;;2064383;28;20221;-67
2023/04/25 03:45:26;;;;;;;3.97;3.00;;;;;18.50;99928.00;;;;2065014;28;20288;-67
2023/04/25 03:46:26;;;;;;;5.03;2.90;;;;;18.50;99925.00;;;;2064899;28;20248;-67
2023/04/25 03:47:27;;;;;;;4.67;3.60;;;;;18.50;99923.00;;;;2067630;28;20217;-67
2023/04/25 03:48:27;;;;;;;4.43;2.90;;;;;18.50;99916.00;;;;2072732;28;20563;-67
2023/04/25 03:49:27;;;;;;;6.23;3.10;;;;;18.50;99921.00;;;;2064038;28;20227;-67
2023/04/25 03:50:28;;;;;;;4.73;3.50;;;;;18.50;99917.00;;;;2065139;28;20240;-67
2023/04/25 03:51:28;;;;;;;6.20;2.83;;;;;18.50;99915.00;;;;2064398;28;20282;-67
2023/04/25 03:52:29;;;;;;;4.60;3.03;;;;;18.50;99917.00;;;;2067437;28;20244;-67
2023/04/25 03:53:29;;;;;;;4.10;2.77;;;;;18.50;99916.00;;;;2072432;28;20224;-67
2023/04/25 03:54:29;;;;;;;4.30;2.67;;;;;18.50;99918.00;;;;2058982;28;20717;-67
2023/04/25 03:55:30;;;;;;;3.90;2.73;;;;;18.50;99920.00;;;;2063128;28;20515;-67
2023/04/25 03:56:31;;;;;;;4.63;2.77;;;;;18.50;99918.00;;;;2068827;28;20303;-67
2023/04/25 03:57:31;;;;;;;4.53;2.90;;;;;18.50;99921.00;;;;2067674;28;20907;-67
2023/04/25 03:58:31;;;;;;;5.63;3.43;;;;;18.50;99926.00;;;;2069389;28;20594;-67
2023/04/25 03:59:32;;;;;;;5.73;2.83;;;;;18.50;99923.00;;;;2064974;28;20708;-67
2023/04/25 04:00:32;;;;;;;3.53;2.63;;;;;18.50;99927.00;;;;2064878;28;20678;-67
2023/04/25 04:01:32;;;;;;;3.40;2.53;;;;;18.50;99920.00;;;;2063712;28;20220;-67
2023/04/25 04:02:34;;;;;;;3.43;2.50;;;;;18.50;99931.00;;;;2064996;28;20249;-67
2023/04/25 04:03:35;;;;;;;4.15;2.70;;;;;18.50;99922.00;;;;2060662;28;20220;-67
2023/04/25 04:04:36;;;;;;;3.63;2.40;;;;;18.50;99929.00;;;;2056379;28;20649;-66
2023/04/25 04:05:37;;;;;;;3.17;2.70;;;;;18.50;99932.00;;;;2067085;28;20228;-66
2023/04/25 04:06:37;;;;;;;4.70;2.73;;;;;18.50;99931.00;;;;2070136;28;20212;-66
2023/04/25 04:07:39;;;;;;;3.90;2.40;;;;;18.50;99927.00;;;;2063829;28;20224;-66
2023/04/25 04:08:40;;;;;;;4.13;3.00;;;;;18.50;99930.00;;;;2055950;28;20218;-66
2023/04/25 04:09:40;;;;;;;3.77;2.40;;;;;18.50;99933.00;;;;2056560;28;20206;-66
2023/04/25 04:10:40;;;;;;;3.00;2.70;;;;;18.50;99937.00;;;;2060876;28;20201;-66
2023/04/25 04:11:41;;;;;;;4.47;2.40;;;;;18.50;99935.00;;;;2064814;28;20303;-66
2023/04/25 04:12:41;;;;;;;4.43;2.40;;;;;18.40;99934.00;;;;2064201;28;20211;-67
2023/04/25 04:13:41;;;;;;;3.80;2.67;;;;;18.40;99937.00;;;;2064723;28;20216;-67
2023/04/25 04:14:42;;;;;;;5.73;2.97;;;;;18.50;99930.00;;;;2063942;28;20673;-67
2023/04/25 04:15:42;;;;;;;4.87;2.80;;;;;18.50;99939.00;;;;2064855;28;20234;-67
2023/04/25 04:16:42;;;;;;;4.37;2.40;;;;;18.50;99934.00;;;;2064295;28;20234;-67
2023/04/25 04:17:43;;;;;;;4.30;2.40;;;;;18.50;99941.00;;;;2064566;28;20210;-67
2023/04/25 04:18:43;;;;;;;4.50;2.63;;;;;18.50;99938.00;;;;2068752;28;20234;-67
2023/04/25 04:19:44;;;;;;;3.77;2.70;;;;;18.50;99936.00;;;;2064161;28;20212;-67
2023/04/25 04:20:44;;;;;;;3.77;2.40;;;;;18.50;99934.00;;;;2069234;28;20295;-67
2023/04/25 04:21:44;;;;;;;3.40;2.47;;;;;18.40;99939.00;;;;2066120;28;20288;-67
2023/04/25 04:22:45;;;;;;;3.63;2.53;;;;;18.40;99938.00;;;;2064646;28;20720;-67
2023/04/25 04:23:46;;;;;;;3.50;2.77;;;;;18.40;99944.00;;;;2064180;28;20221;-67
2023/04/25 04:24:46;;;;;;;3.50;2.60;;;;;18.50;99945.00;;;;2064945;28;20285;-67
2023/04/25 04:25:47;;;;;;;4.20;2.47;;;;;18.40;99943.00;;;;2055767;28;20271;-67
2023/04/25 04:26:48;;;;;;;5.18;1.98;;;;;18.40;99936.00;;;;2054660;28;20265;-67
2023/04/25 04:27:48;;;;;;;3.80;2.47;;;;;18.40;99944.00;;;;2065572;28;20269;-67
2023/04/25 04:28:51;;;;;;;3.37;2.10;;;;;18.40;99947.00;;;;2063916;28;20221;-67
2023/04/25 04:29:53;;;;;;;4.45;2.22;;;;;18.40;99947.00;;;;2055658;28;20580;-67
2023/04/25 04:30:53;;;;;;;4.57;2.63;;;;;18.40;99947.00;;;;2057668;28;20245;-67
2023/04/25 04:31:53;;;;;;;5.57;2.30;;;;;18.40;99951.00;;;;2070573;28;20613;-67
2023/04/25 04:32:54;;;;;;;6.00;2.90;;;;;18.40;99945.00;;;;2057494;28;20721;-67
2023/04/25 04:33:54;;;;;;;3.60;2.90;;;;;18.50;99956.00;;;;2055643;28;20311;-67
2023/04/25 04:34:55;;;;;;;3.20;2.30;;;;;18.50;99951.00;;;;2063783;28;20219;-67
2023/04/25 04:35:55;;;;;;;6.27;2.60;;;;;18.40;99940.00;;;;2066834;28;20248;-67
2023/04/25 04:36:55;;;;;;;4.63;2.40;;;;;18.50;99948.00;;;;2066243;28;20210;-67
2023/04/25 04:37:56;;;;;;;5.83;2.50;;;;;18.50;99957.00;;;;2063680;28;20220;-67
2023/04/25 04:38:56;;;;;;;5.17;2.70;;;;;18.50;99963.00;;;;2064585;28;20239;-67
2023/04/25 04:39:56;;;;;;;4.23;2.27;;;;;18.50;99956.00;;;;2063672;28;20229;-67
2023/04/25 04:40:57;;;;;;;4.40;2.83;;;;;18.50;99962.00;;;;2064469;28;20233;-66
2023/04/25 04:41:57;;;;;;;3.40;2.33;;;;;18.50;99959.00;;;;2064535;28;20627;-66
2023/04/25 04:42:58;;;;;;;4.43;2.13;;;;;18.50;99959.00;;;;2064298;28;20296;-67
2023/04/25 04:44:00;;;;;;;3.90;2.23;;;;;18.50;99962.00;;;;2064609;28;20217;-67
2023/04/25 04:45:01;;;;;;;4.32;2.80;;;;;18.50;99956.00;;;;2063971;28;20218;-67
2023/04/25 04:46:03;;;;;;;4.10;2.47;;;;;18.50;99963.00;;;;2064316;28;20220;-68
2023/04/25 04:47:06;;;;;;;5.32;2.78;;;;;18.50;99962.00;;;;2069840;28;20212;-67
2023/04/25 04:48:06;;;;;;;3.50;2.30;;;;;18.50;99959.00;;;;2071973;28;20240;-67
2023/04/25 04:49:06;;;;;;;9.83;3.03;;;;;18.50;99958.00;;;;2064764;28;20701;-67
2023/04/25 04:50:09;;;;;;;6.33;2.50;;;;;18.60;99964.00;;;;2064471;28;20228;-67
2023/04/25 04:51:09;;;;;;;5.68;2.60;;;;;18.50;99963.00;;;;2064293;28;20211;-67
2023/04/25 04:52:09;;;;;;;7.73;3.00;;;;;18.40;99967.00;;;;2063508;28;20701;-67
2023/04/25 04:53:10;;;;;;;7.57;3.77;;;;;18.30;99968.00;;;;2072353;28;20213;-67
2023/04/25 04:54:10;;;;;;;5.60;3.57;;;;;18.30;99922.00;;;;2057245;28;20299;-67
2023/04/25 04:55:11;;;;;;;6.47;3.33;;;;;18.30;99977.00;;;;2062701;28;20217;-67
2023/04/25 04:56:11;;;;;;;6.53;3.07;;;;;18.30;99971.00;;;;2060203;28;20284;-67
2023/04/25 04:57:11;;;;;;;6.40;3.00;;;;;18.30;99973.00;;;;2055200;28;20208;-67
2023/04/25 04:58:12;;;;;;;5.70;3.20;;;;;18.30;99975.00;;;;2064105;28;20240;-67
2023/04/25 04:59:12;;;;;;;7.80;2.73;;;;;18.20;99968.00;;;;2059624;28;20215;-67
2023/04/25 05:00:13;;;;;;;6.73;3.10;;;;;18.30;99983.00;;;;2061571;28;20292;-67
2023/04/25 05:01:15;;;;;;;5.20;3.20;;;;;18.30;99986.00;;;;2047608;28;20212;-67
2023/04/25 05:02:16;;;;;;;5.28;3.03;;;;;18.30;99977.00;;;;2055280;28;20218;-67